Aviation Digital Data Service (ADDS)

Output produced by TAFs form (0724 UTC 02 July 2016)
found at http://aviationweather.gov/adds/tafs/
 
KLND 020524Z 0206/0306 VRB06KT P6SM SCT120 
     FM022200 04007KT P6SM VCTS SCT100CB BKN150 
     FM030230 25007KT P6SM FEW110 SCT200